Time;durP1;ratioP1;P1;durP2;ratioP2;P2;SDS_P1;SDS_P2;PMS_P1;PMS_P2;Temp;Humidity;BMP_temperature;BMP_pressure;BME280_temperature;BME280_humidity;BME280_pressure;Samples;Min_cycle;Max_cycle;Signal;HPM_P1;HPM_P2
2022/06/23 00:00:41;;;;;;;6.10;5.50;;;17.90;1.00;;;;;;6330500;28;20466;-56
2022/06/23 00:03:48;;;;;;;5.43;5.07;;;17.90;1.00;;;;;;6327165;28;20232;-55
2022/06/23 00:06:54;;;;;;;5.97;5.67;;;17.80;1.00;;;;;;6319256;28;20236;-56
2022/06/23 00:09:59;;;;;;;7.40;6.17;;;17.80;1.00;;;;;;6333120;28;20323;-53
2022/06/23 00:13:09;;;;;;;5.70;5.40;;;17.70;1.00;;;;;;6331039;28;20514;-54
2022/06/23 00:16:21;;;;;;;6.00;5.70;;;17.70;1.00;;;;;;6330475;28;20232;-55
2022/06/23 00:19:24;;;;;;;6.50;5.87;;;17.60;1.00;;;;;;6325379;28;20427;-57
2022/06/23 00:22:33;;;;;;;6.00;5.57;;;17.60;1.00;;;;;;6323232;28;20277;-55
2022/06/23 00:25:44;;;;;;;6.27;5.43;;;17.60;1.00;;;;;;6331179;28;20240;-56
2022/06/23 00:28:52;;;;;;;7.63;5.50;;;17.60;1.00;;;;;;6328692;28;20302;-56
2022/06/23 00:31:57;;;;;;;9.27;5.67;;;17.60;1.00;;;;;;6323267;28;20232;-61
2022/06/23 00:35:05;;;;;;;6.60;6.07;;;17.60;1.00;;;;;;6326274;28;20316;-56
2022/06/23 00:38:20;;;;;;;5.87;5.40;;;17.50;1.00;;;;;;6329033;28;20609;-56
2022/06/23 00:41:31;;;;;;;6.00;5.63;;;17.50;1.00;;;;;;6325242;28;20370;-56
2022/06/23 00:44:41;;;;;;;6.73;6.00;;;17.50;1.00;;;;;;6329739;28;20297;-56
2022/06/23 00:47:49;;;;;;;6.13;5.70;;;17.40;1.00;;;;;;6322243;28;20760;-55
2022/06/23 00:51:00;;;;;;;6.43;5.77;;;17.50;1.00;;;;;;6328256;28;20247;-54
2022/06/23 00:54:07;;;;;;;5.70;5.20;;;17.40;1.00;;;;;;6329229;28;22424;-54
2022/06/23 00:57:16;;;;;;;5.43;5.13;;;17.40;1.00;;;;;;6324869;28;20288;-56
2022/06/23 01:00:23;;;;;;;6.97;5.67;;;17.30;1.00;;;;;;6327354;28;20315;-54
2022/06/23 01:03:30;;;;;;;7.83;5.80;;;17.30;1.00;;;;;;6326821;28;20224;-55
2022/06/23 01:06:39;;;;;;;5.83;5.40;;;17.30;1.00;;;;;;6318484;28;20240;-54
2022/06/23 01:09:49;;;;;;;5.97;5.47;;;17.30;1.00;;;;;;6330717;28;20326;-55
2022/06/23 01:13:00;;;;;;;5.40;5.00;;;17.20;1.00;;;;;;6332073;28;20287;-55
2022/06/23 01:16:11;;;;;;;5.87;5.57;;;17.20;1.00;;;;;;6322319;28;20249;-55
2022/06/23 01:19:51;;;;;;;5.97;5.57;;;17.20;1.00;;;;;;6330246;28;20276;-55
2022/06/23 01:23:06;;;;;;;5.77;5.30;;;17.20;1.00;;;;;;6304129;28;20720;-55
2022/06/23 01:26:44;;;;;;;6.23;5.63;;;17.10;1.00;;;;;;6322129;28;20224;-57
2022/06/23 01:29:51;;;;;;;5.87;5.47;;;17.10;1.00;;;;;;6326156;28;20366;-56
2022/06/23 01:33:04;;;;;;;6.13;5.50;;;17.10;1.00;;;;;;6323978;28;20717;-55
2022/06/23 01:36:14;;;;;;;5.83;5.33;;;17.10;1.00;;;;;;6319568;28;20232;-55
2022/06/23 01:39:25;;;;;;;6.53;6.00;;;17.00;1.00;;;;;;6317731;28;20239;-56
2022/06/23 01:42:45;;;;;;;5.20;5.00;;;17.00;1.00;;;;;;6317583;28;20282;-55
2022/06/23 01:45:56;;;;;;;5.93;5.47;;;17.00;1.00;;;;;;6333508;28;20220;-56
2022/06/23 01:49:12;;;;;;;6.10;5.17;;;17.00;1.00;;;;;;6334671;28;20535;-55
2022/06/23 01:52:19;;;;;;;4.83;4.53;;;17.00;1.00;;;;;;6330508;28;20232;-56
2022/06/23 01:55:25;;;;;;;5.70;5.23;;;16.90;1.00;;;;;;6332641;28;20381;-54
2022/06/23 01:58:37;;;;;;;6.00;5.57;;;16.90;1.00;;;;;;6334768;28;20298;-55
2022/06/23 02:01:50;;;;;;;5.37;4.93;;;16.90;1.00;;;;;;6327744;28;20233;-56
2022/06/23 02:04:58;;;;;;;6.17;5.77;;;16.90;1.00;;;;;;6332089;28;20370;-57
2022/06/23 02:08:07;;;;;;;5.80;5.27;;;16.80;1.00;;;;;;6329298;28;20319;-56
2022/06/23 02:11:14;;;;;;;6.53;5.97;;;16.80;1.00;;;;;;6333918;28;20284;-56
2022/06/23 02:14:42;;;;;;;6.67;6.10;;;16.80;1.00;;;;;;6332198;28;20231;-55
2022/06/23 02:17:55;;;;;;;6.33;5.83;;;16.80;1.00;;;;;;6325386;28;20291;-56
2022/06/23 02:21:21;;;;;;;6.30;5.90;;;16.80;1.00;;;;;;6335452;28;20232;-56
2022/06/23 02:24:29;;;;;;;6.47;5.80;;;16.80;1.00;;;;;;6324319;28;20346;-56
2022/06/23 02:27:39;;;;;;;7.20;6.03;;;16.80;1.00;;;;;;6323724;28;20318;-55
2022/06/23 02:30:46;;;;;;;6.37;5.93;;;16.70;1.00;;;;;;6326958;28;20246;-55
2022/06/23 02:33:56;;;;;;;6.30;5.80;;;16.70;1.00;;;;;;6335702;28;20311;-55
2022/06/23 02:37:36;;;;;;;6.57;6.03;;;16.70;1.00;;;;;;6327914;28;20879;-56
2022/06/23 02:40:42;;;;;;;6.23;5.67;;;16.60;1.00;;;;;;6328438;28;20236;-55
2022/06/23 02:43:50;;;;;;;6.73;6.23;;;16.60;1.00;;;;;;6335601;28;20643;-56
2022/06/23 02:47:17;;;;;;;7.00;6.13;;;16.60;1.00;;;;;;6329869;28;20251;-56
2022/06/23 02:50:33;;;;;;;6.83;6.33;;;16.60;1.00;;;;;;6322345;28;20236;-54
2022/06/23 02:53:58;;;;;;;7.53;6.13;;;16.60;1.00;;;;;;6333520;27;20274;-54
2022/06/23 02:57:21;;;;;;;6.10;5.70;;;16.50;1.00;;;;;;6326984;28;20312;-55
2022/06/23 03:00:32;;;;;;;6.50;6.03;;;16.50;1.00;;;;;;6326319;28;20244;-56
2022/06/23 03:03:42;;;;;;;9.03;6.50;;;16.50;1.00;;;;;;6328382;28;20270;-56
2022/06/23 03:06:52;;;;;;;7.00;6.40;;;16.50;1.00;;;;;;6320517;28;20228;-56
2022/06/23 03:10:04;;;;;;;6.70;6.10;;;16.50;1.00;;;;;;6333720;28;20316;-56
2022/06/23 03:13:12;;;;;;;7.17;6.47;;;16.40;1.00;;;;;;6334627;28;20236;-54
2022/06/23 03:16:23;;;;;;;6.50;6.00;;;16.40;1.00;;;;;;6330763;28;20236;-55
2022/06/23 03:19:30;;;;;;;7.67;6.43;;;16.40;1.00;;;;;;6324465;28;20236;-56
2022/06/23 03:22:40;;;;;;;5.93;5.53;;;16.50;1.00;;;;;;6330429;28;20720;-55
2022/06/23 03:25:49;;;;;;;7.33;6.70;;;16.50;1.00;;;;;;6329762;28;20459;-56
2022/06/23 03:28:57;;;;;;;6.63;6.03;;;16.50;1.00;;;;;;6333035;28;20426;-56
2022/06/23 03:32:08;;;;;;;6.37;5.90;;;16.40;1.00;;;;;;6310920;27;20871;-56
2022/06/23 03:35:26;;;;;;;6.97;6.30;;;16.40;1.00;;;;;;6321917;28;20697;-56
2022/06/23 03:42:15;;;;;;;6.10;5.70;;;16.50;1.00;;;;;;6322033;28;20236;-56
2022/06/23 03:45:25;;;;;;;7.53;6.17;;;16.50;1.00;;;;;;6321873;28;20235;-55
2022/06/23 03:48:32;;;;;;;6.57;6.07;;;16.50;1.00;;;;;;6325616;28;20382;-55
2022/06/23 03:51:38;;;;;;;7.67;6.00;;;16.50;1.00;;;;;;6323163;28;20323;-57
2022/06/23 03:54:48;;;;;;;6.37;5.90;;;16.60;1.00;;;;;;6326083;28;20693;-55
2022/06/23 03:57:56;;;;;;;5.87;5.47;;;16.60;1.00;;;;;;6321821;28;20243;-56
2022/06/23 04:01:05;;;;;;;5.70;5.23;;;16.60;1.00;;;;;;6324499;28;20427;-55
2022/06/23 04:04:16;;;;;;;6.43;5.93;;;16.60;1.00;;;;;;6318058;28;20480;-55
2022/06/23 04:07:42;;;;;;;6.47;5.87;;;16.60;1.00;;;;;;6308830;28;20245;-55
2022/06/23 04:10:50;;;;;;;6.37;5.83;;;16.60;1.00;;;;;;6314208;28;20282;-57
2022/06/23 04:14:00;;;;;;;6.00;5.50;;;16.60;1.00;;;;;;6329054;28;20232;-56
2022/06/23 04:17:12;;;;;;;5.47;5.17;;;16.70;1.00;;;;;;6322906;27;20402;-56
2022/06/23 04:20:19;;;;;;;5.67;5.33;;;16.70;1.00;;;;;;6312846;28;20765;-55
2022/06/23 04:23:29;;;;;;;6.03;5.60;;;16.80;1.00;;;;;;6329477;28;20515;-57
2022/06/23 04:26:43;;;;;;;5.90;5.47;;;16.90;1.00;;;;;;6329848;28;20232;-56
2022/06/23 04:29:52;;;;;;;6.10;5.43;;;16.90;1.00;;;;;;6309912;28;20301;-56
2022/06/23 04:32:57;;;;;;;5.50;5.10;;;16.90;1.00;;;;;;6300622;28;20592;-56
2022/06/23 04:36:02;;;;;;;5.53;5.13;;;17.00;1.00;;;;;;6295385;28;20832;-56
2022/06/23 04:39:20;;;;;;;5.20;4.90;;;17.10;1.00;;;;;;6339702;27;20531;-55
2022/06/23 04:42:26;;;;;;;5.30;5.00;;;17.10;1.00;;;;;;6338511;27;20311;-56
2022/06/23 04:45:49;;;;;;;4.90;4.60;;;17.20;1.00;;;;;;6328996;27;20236;-57
2022/06/23 04:48:57;;;;;;;5.03;4.73;;;17.20;1.00;;;;;;6326442;28;20244;-56
2022/06/23 04:52:04;;;;;;;5.87;5.30;;;17.40;1.00;;;;;;6327674;28;20266;-54
2022/06/23 04:55:13;;;;;;;5.80;5.30;;;17.50;1.00;;;;;;6334002;27;20229;-55
2022/06/23 04:58:23;;;;;;;5.50;5.10;;;17.60;1.00;;;;;;6328612;28;20244;-57
2022/06/23 05:01:35;;;;;;;5.53;5.03;;;17.90;1.00;;;;;;6339800;28;20232;-56
2022/06/23 05:04:45;;;;;;;4.60;4.37;;;18.20;1.00;;;;;;6325564;28;20403;-56
2022/06/23 05:07:54;;;;;;;4.50;4.40;;;18.60;1.00;;;;;;6336079;28;20594;-54
2022/06/23 05:11:25;;;;;;;5.17;4.70;;;19.00;1.00;;;;;;6348799;28;20236;-55
2022/06/23 05:14:43;;;;;;;5.03;4.53;;;19.30;1.00;;;;;;6324702;28;20323;-55
2022/06/23 05:17:52;;;;;;;4.77;4.47;;;19.70;1.00;;;;;;6335398;27;20636;-56
2022/06/23 10:22:58;;;;;;;3.47;3.37;;;28.30;1.00;;;;;;6326567;27;20231;-55
2022/06/23 10:26:25;;;;;;;2.93;2.83;;;28.50;1.00;;;;;;6339476;27;20377;-55
2022/06/23 10:29:53;;;;;;;3.87;3.33;;;28.60;1.00;;;;;;6337149;27;20331;-54
2022/06/23 10:33:25;;;;;;;3.50;3.30;;;28.60;1.00;;;;;;6336448;27;20712;-56
2022/06/23 10:36:50;;;;;;;3.50;3.20;;;28.60;1.00;;;;;;6335709;27;20377;-55
2022/06/23 10:40:17;;;;;;;3.20;3.00;;;28.50;1.00;;;;;;6338053;27;20377;-56
2022/06/23 10:44:21;;;;;;;2.77;2.67;;;28.60;1.00;;;;;;6334326;27;20232;-55
2022/06/23 10:47:56;;;;;;;2.70;2.60;;;28.60;1.00;;;;;;6328800;27;20284;-54
2022/06/23 10:51:12;;;;;;;2.90;2.70;;;28.60;1.00;;;;;;6347159;27;20814;-55
2022/06/23 10:54:43;;;;;;;3.07;2.87;;;28.60;1.00;;;;;;6336027;27;20239;-55
2022/06/23 10:58:29;;;;;;;3.33;2.57;;;28.60;1.00;;;;;;6323705;27;20288;-55
2022/06/23 11:01:48;;;;;;;3.77;3.13;;;28.50;1.00;;;;;;6232127;28;20817;-55
2022/06/23 11:05:23;;;;;;;3.33;3.03;;;28.60;1.00;;;;;;6228606;28;20238;-54
2022/06/23 11:08:52;;;;;;;2.93;2.73;;;28.60;1.00;;;;;;6327927;27;20236;-54
2022/06/23 11:12:05;;;;;;;3.13;2.93;;;28.50;1.00;;;;;;6301060;27;20259;-54
2022/06/23 11:15:21;;;;;;;2.80;2.70;;;28.80;1.00;;;;;;6351956;27;20696;-54
2022/06/23 11:18:37;;;;;;;3.37;3.17;;;28.90;1.00;;;;;;6329550;27;20315;-55
2022/06/23 11:22:21;;;;;;;3.90;3.72;;;28.90;1.00;;;;;;6332487;27;20244;-55
2022/06/23 11:25:38;;;;;;;3.20;2.90;;;29.10;1.00;;;;;;6337285;27;21809;-57
2022/06/23 11:28:59;;;;;;;3.00;2.80;;;29.10;1.00;;;;;;6337904;27;20319;-55
2022/06/23 11:32:19;;;;;;;3.30;2.60;;;28.90;1.00;;;;;;6328487;28;20365;-55
2022/06/23 11:35:50;;;;;;;3.67;3.47;;;29.00;1.00;;;;;;6325341;28;20529;-55
2022/06/23 11:39:18;;;;;;;3.38;2.55;;;29.30;1.00;;;;;;6327809;27;20232;-55
2022/06/23 11:42:44;;;;;;;2.72;2.42;;;29.40;1.00;;;;;;6331229;27;20653;-55
2022/06/23 11:45:55;;;;;;;3.88;3.20;;;29.40;1.00;;;;;;6330491;27;20225;-55
2022/06/23 11:49:21;;;;;;;3.72;2.33;;;29.50;1.00;;;;;;6325270;27;20228;-56
2022/06/23 11:52:39;;;;;;;2.70;2.50;;;29.50;1.00;;;;;;6344340;27;20322;-54
2022/06/23 11:55:46;;;;;;;3.13;2.75;;;29.60;1.00;;;;;;6330612;27;20235;-55
2022/06/23 11:59:13;;;;;;;3.03;2.30;;;29.80;1.00;;;;;;6331655;27;22090;-56
2022/06/23 12:02:16;;;;;;;2.78;2.67;;;29.80;1.00;;;;;;6335970;27;20336;-54
2022/06/23 12:05:27;;;;;;;2.60;2.40;;;29.70;1.00;;;;;;6348700;27;20260;-56
2022/06/23 12:08:44;;;;;;;2.03;2.00;;;29.80;1.00;;;;;;6325384;27;20390;-56
2022/06/23 12:11:53;;;;;;;2.72;2.63;;;29.70;1.00;;;;;;6335622;27;20327;-55
2022/06/23 12:14:56;;;;;;;3.55;2.88;;;29.60;1.00;;;;;;6330346;27;20319;-55
2022/06/23 12:18:09;;;;;;;2.60;2.50;;;29.50;1.00;;;;;;6326620;27;20640;-54
2022/06/23 12:21:30;;;;;;;3.17;3.08;;;29.60;1.00;;;;;;6329141;27;20242;-54
2022/06/23 12:24:43;;;;;;;4.47;3.08;;;29.60;1.00;;;;;;6322388;28;20372;-54
2022/06/23 12:27:52;;;;;;;4.70;2.60;;;29.70;1.00;;;;;;6341548;27;20793;-54
2022/06/23 12:31:03;;;;;;;7.13;3.35;;;29.70;1.00;;;;;;6318746;28;20317;-55
2022/06/23 12:34:20;;;;;;;2.58;2.38;;;29.70;1.00;;;;;;6299631;28;20243;-55
2022/06/23 12:37:33;;;;;;;3.65;2.90;;;29.80;1.00;;;;;;6318236;28;20377;-59
2022/06/23 12:40:41;;;;;;;3.05;2.78;;;29.70;1.00;;;;;;6329236;28;20545;-55
2022/06/23 12:43:51;;;;;;;2.92;2.70;;;29.80;1.00;;;;;;6330791;28;20244;-55
2022/06/23 12:47:03;;;;;;;2.55;2.25;;;29.80;1.00;;;;;;6322364;28;20235;-54
2022/06/23 12:50:26;;;;;;;3.00;2.88;;;29.90;1.00;;;;;;6330790;28;20260;-54
2022/06/23 12:54:00;;;;;;;2.45;2.35;;;30.00;1.00;;;;;;6324127;28;20739;-54
2022/06/23 12:57:28;;;;;;;2.83;2.60;;;30.20;1.00;;;;;;6324667;28;20285;-54
2022/06/23 13:00:48;;;;;;;3.10;2.40;;;30.10;1.00;;;;;;6319000;28;20244;-55
2022/06/23 13:03:57;;;;;;;2.75;2.55;;;30.20;1.00;;;;;;6312116;28;20754;-56
2022/06/23 13:07:14;;;;;;;2.30;2.17;;;30.30;1.00;;;;;;6326950;28;20924;-55
2022/06/23 13:10:26;;;;;;;2.65;2.50;;;30.40;1.00;;;;;;6296665;28;20486;-56
2022/06/23 13:13:39;;;;;;;4.65;2.70;;;30.30;1.00;;;;;;6325947;28;20232;-54
2022/06/23 13:16:50;;;;;;;3.10;2.50;;;30.40;1.00;;;;;;6329508;28;20251;-54
2022/06/23 13:20:02;;;;;;;1.92;1.80;;;30.50;1.00;;;;;;6330722;28;20228;-54
2022/06/23 13:23:14;;;;;;;2.78;2.58;;;30.50;1.00;;;;;;6322944;28;20235;-55
2022/06/23 13:26:24;;;;;;;5.97;2.28;;;30.60;1.00;;;;;;6324485;28;20224;-53
2022/06/23 13:29:35;;;;;;;2.58;2.42;;;30.50;1.00;;;;;;6329688;28;20240;-55
2022/06/23 13:32:43;;;;;;;2.67;2.58;;;30.50;1.00;;;;;;6327733;28;20316;-55
2022/06/23 13:35:58;;;;;;;2.67;2.45;;;30.50;1.00;;;;;;6321308;28;20235;-56
2022/06/23 13:39:12;;;;;;;2.78;2.67;;;30.40;1.00;;;;;;6325985;28;20254;-56
2022/06/23 13:42:21;;;;;;;2.45;2.30;;;30.40;1.00;;;;;;6324999;27;20937;-53
2022/06/23 13:45:34;;;;;;;2.55;2.10;;;30.40;1.00;;;;;;6326183;27;20233;-55
2022/06/23 13:48:43;;;;;;;2.22;2.22;;;30.60;1.00;;;;;;6327856;28;20637;-55
2022/06/23 13:51:51;;;;;;;2.58;2.13;;;30.60;1.00;;;;;;6330984;28;20439;-54
2022/06/23 13:55:00;;;;;;;2.40;2.28;;;30.70;1.00;;;;;;6326348;28;20377;-56
2022/06/23 13:58:08;;;;;;;2.00;1.90;;;30.70;1.00;;;;;;6333066;28;20529;-55
2022/06/23 14:01:28;;;;;;;2.00;1.95;;;30.80;1.00;;;;;;6334098;28;20608;-57
2022/06/23 14:04:34;;;;;;;2.05;1.95;;;30.70;1.00;;;;;;6329968;28;20244;-55
2022/06/23 14:07:44;;;;;;;1.90;1.85;;;30.80;1.00;;;;;;6329161;28;20327;-56
2022/06/23 14:10:57;;;;;;;2.20;2.00;;;30.80;1.00;;;;;;6329190;28;20741;-55
2022/06/23 14:14:13;;;;;;;2.03;2.03;;;30.90;1.00;;;;;;6323970;27;20247;-57
2022/06/23 14:17:22;;;;;;;2.10;2.00;;;30.90;1.00;;;;;;6332321;28;20853;-56
2022/06/23 14:20:34;;;;;;;2.13;2.03;;;30.80;1.00;;;;;;6333627;28;20362;-55
2022/06/23 14:23:46;;;;;;;1.60;1.50;;;30.80;1.00;;;;;;6329472;28;21335;-55
2022/06/23 14:26:58;;;;;;;2.05;1.95;;;30.70;1.00;;;;;;6330787;27;20315;-56
2022/06/23 14:30:14;;;;;;;1.92;1.90;;;30.60;1.00;;;;;;6342429;27;20374;-55
2022/06/23 14:33:22;;;;;;;3.25;2.20;;;30.60;1.00;;;;;;6324270;28;20296;-56
2022/06/23 14:36:36;;;;;;;2.70;1.80;;;30.50;1.00;;;;;;6327686;28;20313;-54
2022/06/23 14:39:45;;;;;;;2.35;2.25;;;30.60;1.00;;;;;;6314588;28;20869;-57
2022/06/23 14:43:14;;;;;;;2.25;2.10;;;30.60;1.00;;;;;;6328162;27;20543;-55
2022/06/23 14:46:28;;;;;;;2.47;1.80;;;30.70;1.00;;;;;;6337439;27;20249;-57
2022/06/23 14:49:51;;;;;;;4.95;2.05;;;30.70;1.00;;;;;;6339167;27;20240;-56
2022/06/23 14:53:03;;;;;;;3.95;2.15;;;30.60;1.00;;;;;;6327812;27;20319;-55
2022/06/23 14:56:18;;;;;;;2.42;2.40;;;30.60;1.00;;;;;;6323039;28;20832;-54
2022/06/23 14:59:26;;;;;;;2.55;2.35;;;30.50;1.00;;;;;;6331674;28;20252;-55
2022/06/23 15:02:40;;;;;;;2.30;2.20;;;30.60;1.00;;;;;;6330887;27;20247;-55
2022/06/23 15:05:49;;;;;;;2.45;2.00;;;30.50;1.00;;;;;;6332703;27;20236;-54
2022/06/23 15:09:01;;;;;;;1.90;1.85;;;30.50;1.00;;;;;;6328078;28;20593;-56
2022/06/23 15:12:15;;;;;;;2.63;2.42;;;30.60;1.00;;;;;;6319814;28;20286;-55
2022/06/23 15:15:37;;;;;;;1.98;1.95;;;30.70;1.00;;;;;;6328727;27;20307;-56
2022/06/23 15:18:49;;;;;;;3.13;2.35;;;30.70;1.00;;;;;;6327328;27;20259;-56
2022/06/23 15:25:54;;;;;;;2.10;2.05;;;30.80;1.00;;;;;;6304460;27;20309;-55
2022/06/23 15:29:02;;;;;;;2.55;2.08;;;30.80;1.00;;;;;;6340521;27;20461;-56
2022/06/23 15:32:14;;;;;;;4.63;1.90;;;30.70;1.00;;;;;;6323953;28;20328;-54
2022/06/23 15:35:39;;;;;;;2.17;2.08;;;30.60;1.00;;;;;;6327389;27;20372;-56
2022/06/23 15:38:48;;;;;;;3.75;2.00;;;30.50;1.00;;;;;;6318272;27;20319;-54
2022/06/23 15:41:59;;;;;;;2.15;2.05;;;30.50;1.00;;;;;;6328641;27;20246;-55
2022/06/23 15:45:12;;;;;;;4.50;2.13;;;30.50;1.00;;;;;;6308838;28;20239;-56
2022/06/23 15:48:22;;;;;;;1.85;1.85;;;30.40;1.00;;;;;;6325733;28;20706;-56
2022/06/23 15:51:34;;;;;;;3.78;2.40;;;30.50;1.00;;;;;;6332187;28;20769;-57
2022/06/23 15:54:42;;;;;;;2.55;2.35;;;30.50;1.00;;;;;;6324590;28;20813;-57
2022/06/23 15:57:59;;;;;;;2.00;2.00;;;30.50;1.00;;;;;;6331204;28;20322;-55
2022/06/23 16:01:07;;;;;;;2.50;2.30;;;30.60;1.00;;;;;;6330412;28;20363;-56
2022/06/23 16:04:16;;;;;;;3.20;2.40;;;30.50;1.00;;;;;;6325211;28;20327;-56
2022/06/23 16:07:24;;;;;;;2.45;2.35;;;30.50;1.00;;;;;;6322373;28;20498;-56
2022/06/23 16:10:33;;;;;;;2.60;2.45;;;30.40;1.00;;;;;;6317546;28;20302;-54
2022/06/23 16:13:39;;;;;;;2.28;2.17;;;30.40;1.00;;;;;;6324306;28;20608;-56
2022/06/23 16:16:48;;;;;;;2.30;2.28;;;30.30;1.00;;;;;;6318948;28;20483;-55
2022/06/23 16:19:57;;;;;;;2.22;2.13;;;30.30;1.00;;;;;;6315847;28;20335;-58
2022/06/23 16:23:10;;;;;;;2.70;2.60;;;30.20;1.00;;;;;;6307513;27;20324;-55
2022/06/23 16:26:31;;;;;;;2.90;2.30;;;30.10;1.00;;;;;;6314272;28;20577;-59
2022/06/23 16:29:42;;;;;;;2.88;2.67;;;30.10;1.00;;;;;;6319915;28;20297;-55
2022/06/23 16:32:49;;;;;;;2.42;2.33;;;30.00;1.00;;;;;;6316993;28;20264;-56
2022/06/23 16:35:59;;;;;;;3.65;2.30;;;29.90;1.00;;;;;;6329126;27;20274;-55
2022/06/23 16:39:11;;;;;;;2.42;2.22;;;29.90;1.00;;;;;;6326724;28;20228;-57
2022/06/23 16:42:38;;;;;;;2.28;2.17;;;29.80;1.00;;;;;;6303904;28;20315;-55
2022/06/23 16:45:50;;;;;;;2.60;2.40;;;29.70;1.00;;;;;;6285682;27;20487;-55
2022/06/23 16:49:00;;;;;;;2.53;2.42;;;29.70;1.00;;;;;;6329299;27;20314;-55
2022/06/23 16:52:11;;;;;;;4.43;2.75;;;29.60;1.00;;;;;;6328234;27;20317;-54
2022/06/23 16:55:25;;;;;;;2.00;2.00;;;29.50;1.00;;;;;;6338560;27;20323;-55
2022/06/23 16:58:52;;;;;;;2.90;2.80;;;29.40;1.00;;;;;;6339772;27;20267;-53
2022/06/23 17:02:02;;;;;;;2.75;2.70;;;29.30;1.00;;;;;;6332582;27;20269;-54
2022/06/23 17:05:10;;;;;;;3.70;2.78;;;29.10;1.00;;;;;;6342427;27;20297;-55
2022/06/23 17:08:17;;;;;;;2.67;2.58;;;29.10;1.00;;;;;;6326692;28;20306;-53
2022/06/23 17:11:32;;;;;;;2.70;2.45;;;28.90;1.00;;;;;;6331041;28;20921;-55
2022/06/23 17:14:51;;;;;;;2.63;2.63;;;28.90;1.00;;;;;;6315213;27;20228;-54
2022/06/23 17:18:02;;;;;;;2.80;2.80;;;28.80;1.00;;;;;;6337047;27;20243;-54
2022/06/23 17:21:09;;;;;;;2.77;2.63;;;28.70;1.00;;;;;;6329662;28;20224;-55
2022/06/23 17:24:18;;;;;;;2.30;2.30;;;28.50;1.00;;;;;;6322959;28;20474;-55
2022/06/23 17:27:33;;;;;;;3.27;3.17;;;28.50;1.00;;;;;;6337683;27;20410;-56
2022/06/23 17:30:44;;;;;;;2.90;2.80;;;28.40;1.00;;;;;;6326972;28;20239;-54
2022/06/23 17:33:52;;;;;;;3.00;2.90;;;28.30;1.00;;;;;;6326015;27;20633;-54
2022/06/23 17:37:04;;;;;;;3.63;3.27;;;28.20;1.00;;;;;;6332617;27;20223;-53
2022/06/23 17:43:49;;;;;;;2.73;2.63;;;28.00;1.00;;;;;;6322893;28;20229;-55
2022/06/23 17:46:59;;;;;;;2.93;2.83;;;28.00;1.00;;;;;;6330674;27;20718;-54
2022/06/23 17:50:03;;;;;;;2.83;2.83;;;27.90;1.00;;;;;;6333303;27;20277;-53
2022/06/23 17:53:15;;;;;;;3.20;3.00;;;27.90;1.00;;;;;;6321426;28;20308;-54
2022/06/23 17:56:18;;;;;;;2.63;2.53;;;27.80;1.00;;;;;;6333742;27;20707;-54
2022/06/23 17:59:27;;;;;;;2.77;2.77;;;27.80;1.00;;;;;;6337407;27;20324;-55
2022/06/23 18:02:34;;;;;;;3.33;3.03;;;27.70;1.00;;;;;;6326482;27;20262;-55
2022/06/23 18:05:54;;;;;;;3.40;3.30;;;27.60;1.00;;;;;;6329877;27;20749;-55
2022/06/23 18:09:01;;;;;;;3.20;3.10;;;27.60;1.00;;;;;;6334953;27;20284;-55
2022/06/23 18:12:11;;;;;;;3.00;2.90;;;27.50;1.00;;;;;;6318723;28;20356;-54
2022/06/23 18:15:27;;;;;;;3.20;3.10;;;27.40;1.00;;;;;;6325511;28;20256;-55
2022/06/23 18:18:35;;;;;;;3.67;3.37;;;27.40;1.00;;;;;;6343872;27;20247;-54
2022/06/23 18:21:45;;;;;;;3.03;2.90;;;27.40;1.00;;;;;;6340486;27;20961;-59
2022/06/23 18:24:54;;;;;;;3.10;3.00;;;27.30;1.00;;;;;;6325990;28;20236;-54
2022/06/23 18:28:02;;;;;;;3.87;3.60;;;27.30;1.00;;;;;;6337399;27;20243;-56
2022/06/23 18:31:21;;;;;;;2.93;2.83;;;27.20;1.00;;;;;;6331807;28;20239;-55
2022/06/23 18:34:33;;;;;;;5.17;3.10;;;27.20;1.00;;;;;;6326635;27;20236;-55
2022/06/23 18:37:42;;;;;;;4.07;3.63;;;27.10;1.00;;;;;;6322194;27;20240;-54
2022/06/23 18:40:50;;;;;;;3.30;3.20;;;27.00;1.00;;;;;;6331994;27;20358;-54
2022/06/23 18:44:01;;;;;;;3.50;3.30;;;27.10;1.00;;;;;;6322372;28;20848;-55
2022/06/23 18:47:10;;;;;;;10.80;4.23;;;27.10;1.00;;;;;;6320967;28;20768;-54
2022/06/23 18:50:18;;;;;;;6.60;4.23;;;27.00;1.00;;;;;;6321265;27;20333;-54
2022/06/23 18:53:35;;;;;;;4.63;3.33;;;26.90;1.00;;;;;;6321756;27;20650;-55
2022/06/23 18:56:41;;;;;;;19.20;3.77;;;26.80;1.00;;;;;;6314468;28;20232;-55
2022/06/23 18:59:58;;;;;;;3.57;3.47;;;26.70;1.00;;;;;;6316901;28;20379;-55
2022/06/23 19:03:09;;;;;;;3.50;3.20;;;26.60;1.00;;;;;;6322067;27;20224;-54
2022/06/23 19:06:31;;;;;;;3.67;3.37;;;26.50;1.00;;;;;;6330577;28;20708;-55
2022/06/23 19:09:39;;;;;;;3.40;3.30;;;26.40;1.00;;;;;;6321707;28;20240;-56
2022/06/23 19:12:55;;;;;;;3.50;3.30;;;26.30;1.00;;;;;;6330149;27;20256;-55
2022/06/23 19:16:23;;;;;;;3.80;3.50;;;26.20;1.00;;;;;;6328943;28;20350;-54
2022/06/23 19:19:34;;;;;;;3.53;3.43;;;26.00;1.00;;;;;;6336018;27;20255;-54
2022/06/23 19:22:42;;;;;;;3.97;3.70;;;26.00;1.00;;;;;;6329503;27;20392;-55
2022/06/23 19:25:51;;;;;;;3.50;3.30;;;25.90;1.00;;;;;;6341121;27;20235;-54
2022/06/23 19:29:06;;;;;;;3.70;3.40;;;25.90;1.00;;;;;;6329179;27;20945;-55
2022/06/23 19:32:18;;;;;;;4.80;3.67;;;25.80;1.00;;;;;;6327576;28;20309;-55
2022/06/23 19:35:27;;;;;;;3.00;3.00;;;25.70;1.00;;;;;;6327338;27;20273;-54
2022/06/23 19:38:39;;;;;;;3.77;3.57;;;25.70;1.00;;;;;;6327635;28;20240;-55
2022/06/23 19:41:52;;;;;;;2.77;2.77;;;25.60;1.00;;;;;;6318088;28;20327;-54
2022/06/23 19:45:19;;;;;;;3.63;3.27;;;25.60;1.00;;;;;;6317940;27;20236;-56
2022/06/23 19:48:23;;;;;;;2.93;2.83;;;25.50;1.00;;;;;;6339264;27;20810;-56
2022/06/23 19:51:32;;;;;;;3.27;3.10;;;25.50;1.00;;;;;;6324431;28;20238;-54
2022/06/23 19:54:42;;;;;;;2.77;2.67;;;25.40;1.00;;;;;;6318582;27;20403;-55
2022/06/23 19:58:06;;;;;;;3.80;3.20;;;25.30;1.00;;;;;;6324152;28;20442;-55
2022/06/23 20:01:21;;;;;;;3.33;3.20;;;25.20;1.00;;;;;;6336554;27;20284;-55
2022/06/23 20:04:36;;;;;;;3.13;2.90;;;25.10;1.00;;;;;;6332350;27;20385;-55
2022/06/23 20:07:50;;;;;;;3.27;3.10;;;25.00;1.00;;;;;;6331920;27;20310;-55
2022/06/23 20:11:06;;;;;;;3.60;3.30;;;24.90;1.00;;;;;;6326827;28;20773;-55
2022/06/23 20:14:18;;;;;;;2.80;2.70;;;24.90;1.00;;;;;;6335621;27;20280;-55
2022/06/23 20:17:30;;;;;;;3.40;3.10;;;24.80;1.00;;;;;;6357001;27;20716;-56
2022/06/23 20:20:41;;;;;;;3.00;2.90;;;24.80;1.00;;;;;;6357670;27;20242;-55
2022/06/23 20:23:57;;;;;;;3.30;3.20;;;24.70;1.00;;;;;;6316012;28;20240;-55
2022/06/23 20:27:04;;;;;;;3.37;3.17;;;24.60;1.00;;;;;;6336043;27;20377;-54
2022/06/23 20:30:13;;;;;;;2.80;2.70;;;24.50;1.00;;;;;;6349015;27;20255;-56
2022/06/23 20:33:29;;;;;;;3.60;2.70;;;24.40;1.00;;;;;;6339218;27;20232;-55
2022/06/23 20:37:13;;;;;;;3.03;2.83;;;24.40;1.00;;;;;;6307539;28;20305;-54
2022/06/23 20:40:33;;;;;;;3.53;2.40;;;24.30;1.00;;;;;;6316035;28;20261;-55
2022/06/23 20:43:51;;;;;;;2.90;2.70;;;24.20;1.00;;;;;;6314301;28;20315;-54
2022/06/23 20:47:19;;;;;;;2.70;2.60;;;24.10;1.00;;;;;;6325552;28;20507;-56
2022/06/23 20:50:42;;;;;;;3.10;3.00;;;24.00;1.00;;;;;;6332749;28;20749;-54
2022/06/23 20:53:53;;;;;;;2.87;2.70;;;24.00;1.00;;;;;;6317665;28;20330;-56
2022/06/23 20:57:08;;;;;;;2.87;2.77;;;23.90;1.00;;;;;;6330471;28;20352;-54
2022/06/23 21:00:14;;;;;;;2.73;2.63;;;23.90;1.00;;;;;;6332328;28;20749;-56
2022/06/23 21:03:22;;;;;;;2.97;2.87;;;23.80;1.00;;;;;;6328098;28;20228;-54
2022/06/23 21:06:34;;;;;;;2.90;2.80;;;23.70;1.00;;;;;;6330882;28;20296;-54
2022/06/23 21:09:44;;;;;;;2.80;2.60;;;23.70;1.00;;;;;;6328356;28;20266;-55
2022/06/23 21:12:56;;;;;;;2.83;2.63;;;23.70;1.00;;;;;;6329822;28;20316;-56
2022/06/23 21:16:11;;;;;;;3.07;2.97;;;23.60;1.00;;;;;;6331706;28;20770;-55
2022/06/23 21:19:26;;;;;;;2.70;2.67;;;23.60;1.00;;;;;;6330170;28;20246;-56
2022/06/23 21:22:49;;;;;;;5.33;2.97;;;23.50;1.00;;;;;;6315665;28;20241;-56
2022/06/23 21:25:56;;;;;;;3.20;3.10;;;23.50;1.00;;;;;;6318880;28;20675;-55
2022/06/23 21:29:13;;;;;;;3.23;2.90;;;23.50;1.00;;;;;;6330577;28;20251;-54
2022/06/23 21:32:20;;;;;;;2.87;2.77;;;23.40;1.00;;;;;;6326585;28;20289;-55
2022/06/23 21:35:33;;;;;;;2.23;2.23;;;23.40;1.00;;;;;;6329502;28;20664;-55
2022/06/23 21:38:40;;;;;;;2.60;2.50;;;23.30;1.00;;;;;;6323729;28;20674;-55
2022/06/23 21:41:51;;;;;;;3.27;3.07;;;23.20;1.00;;;;;;6323385;28;20232;-55
2022/06/23 21:45:03;;;;;;;3.07;2.97;;;23.10;1.00;;;;;;6325601;28;20463;-54
2022/06/23 21:48:19;;;;;;;2.87;2.87;;;23.00;1.00;;;;;;6330618;28;20251;-56
2022/06/23 21:51:37;;;;;;;2.80;2.80;;;23.00;1.00;;;;;;6325914;28;20548;-55
2022/06/23 21:54:45;;;;;;;3.27;3.00;;;22.90;1.00;;;;;;6318028;28;20776;-56
2022/06/23 21:58:17;;;;;;;3.03;3.00;;;22.90;1.00;;;;;;6330728;28;20617;-56
2022/06/23 22:01:31;;;;;;;2.93;2.80;;;22.80;1.00;;;;;;6331831;28;20609;-56
2022/06/23 22:04:47;;;;;;;3.30;3.20;;;22.80;1.00;;;;;;6329963;27;20313;-56
2022/06/23 22:08:00;;;;;;;3.40;3.13;;;22.70;1.00;;;;;;6331876;28;20236;-54
2022/06/23 22:11:04;;;;;;;3.30;3.00;;;22.70;1.00;;;;;;6334004;28;20303;-56
2022/06/23 22:14:15;;;;;;;3.07;2.87;;;22.60;1.00;;;;;;6324453;28;20327;-57